Time;durP1;ratioP1;P1;durP2;ratioP2;P2;SDS_P1;SDS_P2;PMS_P1;PMS_P2;Temp;Humidity;BMP_temperature;BMP_pressure;BME280_temperature;BME280_humidity;BME280_pressure;Samples;Min_cycle;Max_cycle;Signal;HPM_P1;HPM_P2
2023/08/17 00:02:14;;;;;;;8.60;7.70;;;;;;;18.49;100.00;97671.27;110171;1244;69154;-69
2023/08/17 00:04:44;;;;;;;9.80;7.30;;;;;;;18.47;100.00;97672.88;110158;1243;69323;-69
2023/08/17 00:07:15;;;;;;;7.00;6.30;;;;;;;18.45;100.00;97677.45;110159;1241;59669;-70
2023/08/17 00:09:46;;;;;;;7.90;7.10;;;;;;;18.44;100.00;97676.89;110163;1241;60110;-70
2023/08/17 00:12:16;;;;;;;9.50;8.50;;;;;;;18.42;100.00;97676.55;110188;1243;71806;-69
2023/08/17 00:14:47;;;;;;;9.00;8.10;;;;;;;18.42;100.00;97673.71;110212;1243;69312;-69
2023/08/17 00:17:17;;;;;;;9.40;8.40;;;;;;;18.38;100.00;97671.85;110187;1243;69246;-69
2023/08/17 00:19:48;;;;;;;9.70;8.60;;;;;;;18.39;100.00;97671.73;110126;1244;59699;-70
2023/08/17 00:22:17;;;;;;;10.70;9.60;;;;;;;18.36;100.00;97673.41;110185;1241;59717;-70
2023/08/17 00:24:47;;;;;;;;;;;;;;;18.20;100.00;97669.55;110157;1244;72448;-68
2023/08/17 00:27:17;;;;;;;9.00;7.70;;;;;;;18.17;100.00;97670.58;110135;1243;69268;-68
2023/08/17 00:29:47;;;;;;;8.60;7.40;;;;;;;18.33;100.00;97667.86;110161;1243;68530;-69
2023/08/17 00:32:19;;;;;;;8.20;7.40;;;;;;;18.42;100.00;97666.37;110101;1241;59644;-70
2023/08/17 00:34:50;;;;;;;8.40;7.50;;;;;;;18.45;100.00;97669.02;110160;1244;59754;-69
2023/08/17 00:37:21;;;;;;;10.10;9.10;;;;;;;18.46;100.00;97667.36;110158;1246;71430;-69
2023/08/17 00:39:51;;;;;;;9.40;8.50;;;;;;;18.44;100.00;97669.13;110117;1243;69403;-67
2023/08/17 00:42:20;;;;;;;9.20;7.60;;;;;;;18.40;100.00;97666.32;110116;1241;69955;-69
2023/08/17 00:44:50;;;;;;;8.70;7.80;;;;;;;18.36;100.00;97664.81;110118;1241;59744;-69
2023/08/17 00:47:21;;;;;;;8.40;7.50;;;;;;;18.34;100.00;97663.59;110101;1245;59671;-70
2023/08/17 00:49:53;;;;;;;7.70;6.90;;;;;;;18.30;100.00;97660.43;110093;1244;71594;-70
2023/08/17 00:52:23;;;;;;;8.90;8.00;;;;;;;18.27;100.00;97658.42;110178;1244;69753;-68
2023/08/17 00:54:53;;;;;;;8.60;7.70;;;;;;;18.24;100.00;97658.20;110112;1244;68543;-69
2023/08/17 00:57:24;;;;;;;10.10;9.10;;;;;;;18.20;100.00;97657.70;110165;1243;59682;-68
2023/08/17 00:59:55;;;;;;;9.60;8.70;;;;;;;18.18;100.00;97657.42;110114;1245;59646;-69
2023/08/17 01:02:34;;;;;;;9.00;8.10;;;;;;;18.16;100.00;97655.13;110169;1243;71235;-69
2023/08/17 01:05:05;;;;;;;9.80;8.80;;;;;;;18.15;100.00;97648.40;110159;1243;69047;-69
2023/08/17 01:07:37;;;;;;;9.80;8.80;;;;;;;18.14;100.00;97651.83;110135;1241;69186;-67
2023/08/17 01:10:10;;;;;;;8.90;7.90;;;;;;;18.14;100.00;97651.30;110163;1241;59727;-69
2023/08/17 01:13:17;;;;;;;9.10;7.80;;;;;;;18.14;100.00;97650.94;110181;1244;59689;-69
2023/08/17 01:15:52;;;;;;;8.20;7.20;;;;;;;18.14;100.00;97648.96;110040;1244;71442;-68
2023/08/17 01:18:34;;;;;;;10.00;9.00;;;;;;;18.15;100.00;97650.28;110200;1246;68277;-69
2023/08/17 01:21:08;;;;;;;9.80;8.70;;;;;;;18.14;100.00;97646.51;110108;1244;69126;-69
2023/08/17 01:23:38;;;;;;;12.20;10.30;;;;;;;18.12;100.00;97645.50;110137;1244;59676;-70
2023/08/17 01:26:08;;;;;;;10.90;9.40;;;;;;;18.08;100.00;97641.49;110108;1244;59726;-70
2023/08/17 01:28:39;;;;;;;11.30;10.10;;;;;;;18.03;100.00;97644.77;110160;1243;71406;-69
2023/08/17 01:31:19;;;;;;;11.90;10.70;;;;;;;17.99;100.00;97643.65;110149;1241;68381;-68
2023/08/17 01:33:57;;;;;;;9.70;8.70;;;;;;;17.96;100.00;97641.30;110178;1241;69316;-69
2023/08/17 01:36:42;;;;;;;9.70;8.60;;;;;;;17.94;100.00;97647.83;110126;1244;59716;-69
2023/08/17 01:39:16;;;;;;;8.80;7.90;;;;;;;17.93;100.00;97644.80;110127;1241;59692;-69
2023/08/17 01:41:47;;;;;;;10.30;8.80;;;;;;;17.91;100.00;97645.09;110123;1243;70962;-69
2023/08/17 01:44:18;;;;;;;8.60;7.70;;;;;;;17.91;100.00;97642.91;110165;1244;69408;-69
2023/08/17 01:46:48;;;;;;;9.40;8.50;;;;;;;17.88;100.00;97638.41;110140;1242;68296;-69
2023/08/17 01:49:18;;;;;;;9.40;8.40;;;;;;;17.83;100.00;97636.73;110159;1241;59674;-68
2023/08/17 01:51:48;;;;;;;8.90;8.00;;;;;;;17.80;100.00;97636.20;110201;1241;59706;-68
2023/08/17 01:54:19;;;;;;;8.30;7.50;;;;;;;17.77;100.00;97636.73;110102;1241;71991;-70
2023/08/17 01:56:51;;;;;;;9.10;8.10;;;;;;;17.75;100.00;97634.14;110110;1243;69173;-69
2023/08/17 01:59:21;;;;;;;9.20;8.00;;;;;;;17.71;100.00;97638.57;110166;1244;69205;-69
2023/08/17 02:01:51;;;;;;;8.20;7.30;;;;;;;17.69;100.00;97639.00;110106;1244;59683;-68
2023/08/17 02:04:21;;;;;;;;;;;;;;;17.67;100.00;97638.66;110156;1244;59732;-69
2023/08/17 02:06:51;;;;;;;8.60;7.80;;;;;;;17.63;100.00;97639.24;110188;1244;70678;-69
2023/08/17 02:09:21;;;;;;;9.00;8.00;;;;;;;17.60;100.00;97638.95;110106;1244;69645;-69
2023/08/17 02:11:55;;;;;;;9.00;8.10;;;;;;;17.58;100.00;97637.41;110093;1241;69322;-69
2023/08/17 02:14:25;;;;;;;10.70;8.60;;;;;;;17.55;100.00;97641.17;110113;1244;59676;-69
2023/08/17 02:16:56;;;;;;;10.50;8.50;;;;;;;17.53;100.00;97639.81;110150;1242;59697;-69
2023/08/17 02:19:27;;;;;;;9.00;8.10;;;;;;;17.52;100.00;97634.50;110144;1243;71270;-69
2023/08/17 02:21:57;;;;;;;9.30;8.40;;;;;;;17.51;100.00;97636.14;110163;1241;68572;-69
2023/08/17 02:24:28;;;;;;;9.90;8.40;;;;;;;17.49;100.00;97633.73;110165;1244;69184;-70
2023/08/17 02:26:59;;;;;;;9.30;8.30;;;;;;;17.46;100.00;97635.01;110142;1243;59678;-69
2023/08/17 02:29:30;;;;;;;10.30;8.20;;;;;;;17.44;100.00;97640.52;110147;1241;59729;-69
2023/08/17 02:32:01;;;;;;;9.10;8.10;;;;;;;17.42;100.00;97634.98;110125;1244;71449;-69
2023/08/17 02:34:30;;;;;;;8.60;7.70;;;;;;;17.40;100.00;97637.05;110129;1241;68366;-68
2023/08/17 02:37:00;;;;;;;8.30;7.50;;;;;;;17.38;100.00;97633.08;110160;1243;68534;-70
2023/08/17 02:39:30;;;;;;;8.70;7.80;;;;;;;17.34;100.00;97629.04;110113;1243;60134;-70
2023/08/17 02:41:59;;;;;;;8.00;7.20;;;;;;;17.32;100.00;97629.73;110109;1245;59680;-70
2023/08/17 02:44:29;;;;;;;9.10;7.80;;;;;;;17.29;100.00;97627.67;110170;1241;70259;-69
2023/08/17 02:46:58;;;;;;;;;;;;;;;17.26;100.00;97624.16;110163;1241;68832;-69
2023/08/17 02:49:29;;;;;;;7.70;7.00;;;;;;;17.23;100.00;97623.38;110123;1245;69158;-68
2023/08/17 02:52:00;;;;;;;7.80;7.10;;;;;;;17.20;100.00;97622.05;110110;1245;59782;-69
2023/08/17 02:54:31;;;;;;;9.30;8.40;;;;;;;17.17;100.00;97622.88;110070;1244;59689;-69
2023/08/17 02:57:00;;;;;;;;;;;;;;;17.14;100.00;97623.95;110157;1244;69792;-69
2023/08/17 02:59:29;;;;;;;9.50;6.80;;;;;;;17.09;100.00;97628.58;110151;1244;69218;-69
2023/08/17 03:01:59;;;;;;;7.40;6.60;;;;;;;17.05;100.00;97627.55;110114;1244;69239;-69
2023/08/17 03:04:29;;;;;;;8.30;7.40;;;;;;;17.01;100.00;97622.98;110134;1241;60046;-69
2023/08/17 03:06:58;;;;;;;7.90;7.10;;;;;;;16.99;100.00;97624.46;110165;1241;59687;-70
2023/08/17 03:09:28;;;;;;;8.50;7.40;;;;;;;16.97;100.00;97627.31;110133;1241;72083;-70
2023/08/17 03:11:57;;;;;;;8.10;6.90;;;;;;;16.95;100.00;97627.98;110146;1249;69091;-70
2023/08/17 03:14:27;;;;;;;9.30;8.00;;;;;;;16.93;100.00;97627.84;110111;1241;69289;-70
2023/08/17 03:16:57;;;;;;;8.10;7.30;;;;;;;16.91;100.00;97625.61;110103;1241;59689;-70
2023/08/17 03:19:27;;;;;;;8.50;6.70;;;;;;;16.87;100.00;97625.27;110103;1244;59706;-70
2023/08/17 03:21:58;;;;;;;10.70;8.10;;;;;;;16.84;100.00;97623.45;110180;1243;71347;-69
2023/08/17 03:24:29;;;;;;;8.30;7.50;;;;;;;16.80;100.00;97620.41;110162;1242;69107;-68
2023/08/17 03:26:59;;;;;;;8.70;7.80;;;;;;;16.78;100.00;97621.30;110165;1245;69117;-70
2023/08/17 03:29:29;;;;;;;10.40;7.90;;;;;;;16.75;100.00;97621.77;110150;1241;59760;-69
2023/08/17 03:32:00;;;;;;;9.60;7.80;;;;;;;16.74;100.00;97619.63;110100;1241;59755;-69
2023/08/17 03:34:30;;;;;;;9.40;8.10;;;;;;;16.72;100.00;97619.26;110147;1244;70633;-69
2023/08/17 03:37:03;;;;;;;8.30;7.50;;;;;;;16.70;100.00;97619.74;110165;1241;68455;-69
2023/08/17 03:39:33;;;;;;;8.70;7.80;;;;;;;16.69;100.00;97619.54;110100;1244;68671;-69
2023/08/17 03:42:04;;;;;;;8.60;7.70;;;;;;;16.68;100.00;97618.95;110141;1243;59679;-69
2023/08/17 03:44:35;;;;;;;9.70;8.00;;;;;;;16.66;100.00;97621.21;110120;1243;59647;-69
2023/08/17 03:47:07;;;;;;;8.40;7.50;;;;;;;16.66;100.00;97618.23;110125;1241;69698;-69
2023/08/17 03:49:38;;;;;;;7.50;6.50;;;;;;;16.67;100.00;97622.54;110152;1241;69230;-70
2023/08/17 03:52:08;;;;;;;7.70;7.00;;;;;;;16.68;100.00;97620.17;110106;1250;68390;-70
2023/08/17 03:54:38;;;;;;;7.90;7.10;;;;;;;16.70;100.00;97625.79;110116;1242;59779;-70
2023/08/17 03:57:08;;;;;;;7.20;6.50;;;;;;;16.73;100.00;97625.71;110175;1243;59691;-70
2023/08/17 03:59:38;;;;;;;8.00;7.10;;;;;;;16.76;100.00;97624.37;110126;1244;69633;-70
2023/08/17 04:02:08;;;;;;;8.10;7.30;;;;;;;16.78;100.00;97629.06;110133;1241;68488;-70
2023/08/17 04:04:38;;;;;;;;;;;;;;;16.81;100.00;97630.02;110147;1242;69498;-70
2023/08/17 04:07:08;;;;;;;;;;;;;;;16.83;100.00;97628.65;110118;1244;59737;-68
2023/08/17 04:09:38;;;;;;;;;;;;;;;16.85;100.00;97628.31;110110;1244;59686;-69
2023/08/17 04:12:09;;;;;;;9.90;7.80;;;;;;;16.86;100.00;97627.46;110133;1244;70970;-69
2023/08/17 04:14:39;;;;;;;8.00;7.20;;;;;;;16.90;100.00;97631.67;110118;1241;69347;-68
2023/08/17 04:17:11;;;;;;;8.40;7.50;;;;;;;16.96;100.00;97625.77;110124;1241;68554;-70
2023/08/17 04:19:42;;;;;;;11.10;9.60;;;;;;;17.04;100.00;97628.00;110133;1241;59683;-67
2023/08/17 04:22:12;;;;;;;9.70;8.40;;;;;;;17.10;100.00;97627.34;110163;1241;59662;-67
2023/08/17 04:24:42;;;;;;;13.40;8.50;;;;;;;17.19;100.00;97631.34;110141;1241;71951;-68
2023/08/17 04:27:13;;;;;;;11.30;8.30;;;;;;;17.27;100.00;97631.40;110144;1244;69227;-69
2023/08/17 04:29:44;;;;;;;9.40;8.40;;;;;;;17.35;100.00;97632.41;110107;1241;68306;-70
2023/08/17 04:32:15;;;;;;;9.40;8.40;;;;;;;17.43;100.00;97635.70;110150;1241;59714;-68
2023/08/17 04:34:46;;;;;;;9.70;8.10;;;;;;;17.51;100.00;97640.05;110161;1241;59753;-69
2023/08/17 04:37:15;;;;;;;9.70;8.60;;;;;;;17.58;100.00;97639.48;110214;1242;70814;-69
2023/08/17 04:39:47;;;;;;;9.90;7.80;;;;;;;17.65;100.00;97638.27;110102;1243;69577;-69
2023/08/17 04:42:20;;;;;;;10.00;8.70;;;;;;;17.77;100.00;97640.66;110104;1241;68365;-68
2023/08/17 04:44:50;;;;;;;9.40;8.50;;;;;;;17.92;100.00;97636.18;110065;1244;59757;-71
2023/08/17 04:47:19;;;;;;;;;;;;;;;18.13;100.00;97640.25;110132;1244;59708;-68
2023/08/17 04:49:49;;;;;;;;;;;;;;;18.29;100.00;97640.95;110163;1244;70677;-68
2023/08/17 04:52:19;;;;;;;8.60;7.60;;;;;;;18.41;100.00;97642.01;110164;1241;68407;-68
2023/08/17 04:54:48;;;;;;;10.00;8.60;;;;;;;18.50;100.00;97640.08;110105;1241;68588;-67
2023/08/17 04:57:18;;;;;;;10.90;9.80;;;;;;;18.59;100.00;97643.55;110160;1243;59731;-70
2023/08/17 04:59:48;;;;;;;9.90;8.60;;;;;;;18.58;100.00;97642.41;110101;1244;59718;-70
2023/08/17 05:02:18;;;;;;;9.10;7.80;;;;;;;18.60;100.00;97642.04;109914;1241;70578;-69
2023/08/17 05:04:48;;;;;;;;;;;;;;;18.74;100.00;97644.89;110168;1244;69852;-68
2023/08/17 05:07:17;;;;;;;9.20;8.20;;;;;;;18.98;100.00;97647.40;110076;1241;68337;-68
2023/08/17 05:09:47;;;;;;;9.70;8.20;;;;;;;19.29;100.00;97644.02;110052;1244;59674;-69
2023/08/17 05:12:16;;;;;;;9.40;7.10;;;;;;;19.68;100.00;97643.71;110083;1244;59704;-68
2023/08/17 05:14:46;;;;;;;8.20;7.40;;;;;;;20.07;100.00;97641.04;110116;1243;71690;-69
2023/08/17 05:17:15;;;;;;;;;;;;;;;20.39;100.00;97639.77;110161;1243;68622;-69
2023/08/17 05:19:46;;;;;;;8.30;7.50;;;;;;;20.64;100.00;97642.07;110147;1241;68509;-70
2023/08/17 05:22:16;;;;;;;13.40;10.20;;;;;;;20.95;100.00;97640.89;110103;1241;59774;-67
2023/08/17 05:24:46;;;;;;;10.00;9.00;;;;;;;21.17;100.00;97640.69;110116;1241;59672;-68
2023/08/17 05:27:15;;;;;;;9.40;8.50;;;;;;;21.42;100.00;97639.20;110095;1241;71931;-70
2023/08/17 05:29:45;;;;;;;9.70;8.70;;;;;;;21.68;100.00;97641.38;110133;1244;69225;-70
2023/08/17 05:32:14;;;;;;;10.80;9.50;;;;;;;21.85;99.59;97644.35;110114;1245;70336;-68
2023/08/17 05:34:44;;;;;;;10.40;9.40;;;;;;;22.04;100.00;97649.37;110067;1244;59757;-70
2023/08/17 05:37:15;;;;;;;9.10;8.20;;;;;;;22.05;97.90;97649.63;110168;1243;59630;-69
2023/08/17 05:39:44;;;;;;;7.80;7.10;;;;;;;22.33;99.83;97650.26;110106;1241;71432;-69
2023/08/17 05:42:14;;;;;;;7.70;7.00;;;;;;;22.77;99.40;97649.02;110122;1244;69746;-69
2023/08/17 05:44:43;;;;;;;;;;;;;;;23.20;98.58;97655.29;110130;1244;68914;-70
2023/08/17 05:47:15;;;;;;;8.30;7.60;;;;;;;23.42;95.11;97654.33;110084;1241;59705;-70
2023/08/17 05:49:46;;;;;;;10.40;9.30;;;;;;;23.39;92.38;97654.30;110052;1242;59827;-70
2023/08/17 05:52:15;;;;;;;11.10;9.20;;;;;;;23.31;94.12;97653.66;110119;1245;72351;-69
2023/08/17 05:54:44;;;;;;;10.50;9.60;;;;;;;23.67;95.23;97651.88;110148;1244;69777;-68
2023/08/17 05:57:14;;;;;;;12.40;11.00;;;;;;;24.05;91.80;97656.56;110094;1241;69326;-69
2023/08/17 05:59:43;;;;;;;18.10;14.80;;;;;;;24.25;85.61;97650.21;110104;1241;59702;-70
2023/08/17 06:02:12;;;;;;;15.70;13.80;;;;;;;24.27;83.98;97651.84;110102;1244;59710;-69
2023/08/17 06:04:41;;;;;;;13.50;12.20;;;;;;;24.40;86.29;97655.95;110151;1245;71445;-68
2023/08/17 06:07:10;;;;;;;21.00;19.00;;;;;;;24.27;84.74;97655.30;110193;1244;69775;-69
2023/08/17 06:09:40;;;;;;;15.90;14.20;;;;;;;24.30;83.07;97656.30;110112;1241;69262;-68
2023/08/17 06:12:10;;;;;;;14.70;12.50;;;;;;;24.25;81.66;97653.73;110085;1243;59713;-68
2023/08/17 06:14:39;;;;;;;14.90;13.40;;;;;;;24.34;82.54;97653.27;110139;1244;59694;-68
2023/08/17 06:17:10;;;;;;;11.80;10.60;;;;;;;24.45;82.22;97653.21;110147;1243;72026;-69
2023/08/17 06:19:40;;;;;;;14.80;11.90;;;;;;;24.54;82.46;97658.09;110099;1241;68589;-69
2023/08/17 06:22:09;;;;;;;;;;;;;;;24.66;79.43;97661.75;110123;1243;69261;-68
2023/08/17 06:24:38;;;;;;;14.90;11.40;;;;;;;24.74;78.03;97662.26;110167;1241;59852;-69
2023/08/17 06:27:07;;;;;;;13.20;11.80;;;;;;;24.97;79.74;97661.84;110155;1243;59640;-66
2023/08/17 06:29:36;;;;;;;15.40;13.80;;;;;;;25.29;76.50;97661.75;110144;1243;71219;-69
2023/08/17 06:32:06;;;;;;;15.60;13.90;;;;;;;25.56;77.20;97657.94;110188;1243;69224;-69
2023/08/17 06:34:35;;;;;;;13.00;11.30;;;;;;;25.87;76.69;97660.54;110099;1245;69400;-67
2023/08/17 06:37:05;;;;;;;10.90;9.20;;;;;;;25.92;72.36;97660.42;110178;1241;59780;-69
2023/08/17 06:39:36;;;;;;;9.60;8.60;;;;;;;26.16;71.95;97665.65;110172;1245;59673;-69
2023/08/17 06:42:06;;;;;;;14.10;11.70;;;;;;;26.42;71.82;97664.04;110103;1244;70685;-69
2023/08/17 06:44:34;;;;;;;;;;;;;;;26.61;70.14;97664.60;110178;1241;69265;-69
2023/08/17 06:47:04;;;;;;;12.60;11.30;;;;;;;26.38;68.59;97666.74;110157;1241;67561;-69
2023/08/17 06:49:35;;;;;;;9.80;8.60;;;;;;;26.22;69.35;97673.03;110141;1244;59717;-67
2023/08/17 06:52:04;;;;;;;10.20;8.60;;;;;;;26.27;69.23;97670.15;110132;1244;59705;-69
2023/08/17 06:54:34;;;;;;;20.90;18.90;;;;;;;26.31;68.28;97671.48;110119;1244;70728;-67
2023/08/17 06:57:03;;;;;;;18.30;16.50;;;;;;;26.24;67.33;97671.52;110133;1244;69813;-69
2023/08/17 06:59:33;;;;;;;13.30;11.90;;;;;;;26.15;67.44;97671.95;110092;1241;69299;-66
2023/08/17 07:02:03;;;;;;;10.60;9.50;;;;;;;26.37;67.87;97669.39;110171;1241;59753;-69
2023/08/17 07:04:33;;;;;;;13.70;12.40;;;;;;;26.76;67.34;97669.52;110147;1241;59688;-67
2023/08/17 07:07:02;;;;;;;;;;;;;;;26.91;65.79;97668.71;110101;1244;71428;-68
2023/08/17 07:09:31;;;;;;;11.20;10.20;;;;;;;26.87;65.37;97670.66;110112;1244;69038;-67
2023/08/17 07:12:01;;;;;;;11.10;10.00;;;;;;;26.95;64.70;97668.55;110103;1241;68407;-67
2023/08/17 07:14:29;;;;;;;;;;;;;;;26.92;64.79;97667.36;110100;1241;59690;-66
2023/08/17 07:16:59;;;;;;;11.70;10.60;;;;;;;27.00;64.23;97669.28;110164;1243;59665;-66
2023/08/17 07:19:29;;;;;;;10.90;9.80;;;;;;;27.02;63.17;97668.93;109671;1241;623943;-67
2023/08/17 07:22:19;;;;;;;9.80;8.80;;;;;;;26.80;63.60;97669.39;110103;1244;69692;-65
2023/08/17 07:24:47;;;;;;;;;;;;;;;26.74;63.00;97672.04;110095;1242;68287;-66
2023/08/17 07:27:17;;;;;;;10.10;9.00;;;;;;;26.83;63.22;97667.16;110155;1241;59776;-68
2023/08/17 07:29:46;;;;;;;10.80;9.70;;;;;;;26.96;62.94;97667.55;110117;1241;59631;-66
2023/08/17 07:32:15;;;;;;;7.70;6.90;;;;;;;27.27;60.77;97664.49;110185;1244;72065;-70
2023/08/17 07:34:44;;;;;;;;;;;;;;;27.69;60.23;97671.48;110163;1243;69874;-68
2023/08/17 07:37:13;;;;;;;9.50;8.40;;;;;;;27.87;59.08;97668.80;110166;1243;69551;-68
2023/08/17 07:39:44;;;;;;;7.70;6.70;;;;;;;27.90;57.76;97667.45;110150;1243;59760;-69
2023/08/17 07:42:13;;;;;;;7.50;6.90;;;;;;;28.03;57.38;97667.45;110191;1241;59773;-70
2023/08/17 07:44:42;;;;;;;6.70;6.10;;;;;;;28.45;57.13;97667.52;110119;1243;71992;-69
2023/08/17 07:47:11;;;;;;;9.40;7.20;;;;;;;28.82;57.08;97666.64;110155;1243;69772;-69
2023/08/17 07:49:41;;;;;;;7.10;6.30;;;;;;;28.86;55.28;97666.56;110140;1244;69303;-69
2023/08/17 07:52:10;;;;;;;8.00;7.20;;;;;;;28.70;55.78;97667.21;110125;1243;59744;-69
2023/08/17 07:54:39;;;;;;;7.10;6.40;;;;;;;29.09;54.73;97664.21;110161;1244;59697;-69
2023/08/17 07:57:09;;;;;;;6.80;6.20;;;;;;;29.48;53.52;97664.40;110167;1242;71003;-69
2023/08/17 07:59:38;;;;;;;7.30;6.60;;;;;;;29.25;53.15;97659.19;110172;1241;68320;-69
2023/08/17 08:02:07;;;;;;;6.40;5.80;;;;;;;29.71;53.84;97659.11;110162;1241;69580;-69
2023/08/17 08:04:36;;;;;;;;;;;;;;;30.32;54.60;97657.94;110190;1243;59750;-69
2023/08/17 08:07:05;;;;;;;7.20;6.50;;;;;;;30.77;52.74;97655.52;110228;1244;59656;-68
2023/08/17 08:09:34;;;;;;;7.20;6.50;;;;;;;30.95;49.54;97653.62;110196;1245;72318;-69
2023/08/17 08:12:04;;;;;;;6.00;5.50;;;;;;;31.11;49.63;97652.46;110205;1244;69755;-68
2023/08/17 08:14:33;;;;;;;6.80;6.10;;;;;;;31.36;49.04;97653.49;110176;1245;69248;-69
2023/08/17 08:17:03;;;;;;;6.90;6.00;;;;;;;31.84;51.45;97658.07;110184;1244;59755;-69
2023/08/17 08:19:32;;;;;;;6.60;6.00;;;;;;;32.11;48.59;97655.39;110209;1244;59637;-70
2023/08/17 08:22:02;;;;;;;6.90;6.30;;;;;;;31.99;47.83;97652.38;110188;1243;71206;-69
2023/08/17 08:24:34;;;;;;;5.80;5.30;;;;;;;32.06;47.61;97651.14;110203;1241;68366;-69
2023/08/17 08:27:07;;;;;;;6.80;6.20;;;;;;;32.28;47.18;97655.04;110126;1241;68206;-69
2023/08/17 08:29:36;;;;;;;6.20;5.70;;;;;;;32.63;49.71;97649.08;110100;1241;59759;-69
2023/08/17 08:32:05;;;;;;;6.60;5.90;;;;;;;33.13;47.79;97649.08;110140;1243;59715;-68
2023/08/17 08:34:35;;;;;;;6.70;6.00;;;;;;;33.19;46.89;97646.73;110191;1241;71358;-68
2023/08/17 08:37:04;;;;;;;6.50;5.90;;;;;;;32.76;44.99;97649.59;110150;1244;70198;-68
2023/08/17 08:39:49;;;;;;;5.60;5.10;;;;;;;32.51;45.55;97647.54;110125;1241;69953;-68
2023/08/17 08:42:19;;;;;;;6.40;5.80;;;;;;;32.98;47.13;97645.88;110159;1244;59727;-70
2023/08/17 08:44:50;;;;;;;6.30;5.70;;;;;;;33.35;44.95;97642.92;110180;1241;60090;-69
2023/08/17 08:47:19;;;;;;;6.40;5.80;;;;;;;33.59;45.29;97646.16;110101;1241;71560;-69
2023/08/17 08:50:02;;;;;;;6.30;5.50;;;;;;;33.36;43.10;97640.69;110187;1245;69073;-69
2023/08/17 08:52:36;;;;;;;6.10;5.20;;;;;;;33.54;44.24;97641.59;110156;1243;69848;-69
2023/08/17 08:55:14;;;;;;;7.50;5.80;;;;;;;33.72;43.84;97642.83;110176;1244;59680;-69
2023/08/17 08:57:43;;;;;;;7.80;6.00;;;;;;;33.44;43.53;97640.95;110182;1241;59732;-68
2023/08/17 09:00:19;;;;;;;6.80;6.10;;;;;;;33.71;43.44;97634.31;110184;1241;71958;-69
2023/08/17 09:02:49;;;;;;;6.50;5.90;;;;;;;33.70;43.90;97634.30;110169;1243;69710;-68
2023/08/17 09:05:19;;;;;;;6.20;5.60;;;;;;;33.95;42.65;97631.70;110175;1243;69320;-68
2023/08/17 09:07:50;;;;;;;8.20;6.40;;;;;;;33.73;42.99;97630.36;110173;1241;59757;-68
2023/08/17 09:10:19;;;;;;;7.20;6.50;;;;;;;33.79;42.32;97625.72;110166;1243;59779;-68
2023/08/17 09:12:48;;;;;;;6.20;5.70;;;;;;;33.26;42.16;97625.13;110114;1241;72355;-69
2023/08/17 09:15:18;;;;;;;4.60;4.20;;;;;;;33.33;43.15;97621.70;110182;1241;69090;-69
2023/08/17 09:17:49;;;;;;;5.70;5.20;;;;;;;33.66;42.23;97622.42;110148;1243;69282;-69
2023/08/17 09:20:41;;;;;;;7.10;6.50;;;;;;;33.89;42.85;97618.18;110140;1244;59655;-68
2023/08/17 09:23:19;;;;;;;7.00;6.40;;;;;;;34.31;41.84;97618.52;110152;1244;59711;-69
2023/08/17 09:25:57;;;;;;;6.00;5.40;;;;;;;34.01;40.79;97619.52;110151;1241;70628;-67
2023/08/17 09:28:27;;;;;;;4.80;4.40;;;;;;;34.65;40.51;97616.57;110092;1244;69655;-68
2023/08/17 09:31:05;;;;;;;5.80;5.20;;;;;;;35.13;40.46;97616.69;110097;1244;69160;-68
2023/08/17 09:33:35;;;;;;;5.20;4.80;;;;;;;35.72;38.44;97614.61;110132;1244;59691;-69
2023/08/17 09:36:04;;;;;;;5.70;4.90;;;;;;;36.00;38.62;97610.34;110116;1241;59683;-68
2023/08/17 09:38:33;;;;;;;5.80;4.40;;;;;;;36.28;38.05;97611.33;110137;1241;71710;-68
2023/08/17 09:41:03;;;;;;;5.00;4.60;;;;;;;36.82;35.72;97606.50;110143;1245;69653;-68
2023/08/17 09:43:33;;;;;;;5.90;4.00;;;;;;;37.01;35.40;97602.71;110114;1244;69132;-67
2023/08/17 09:46:03;;;;;;;4.80;4.40;;;;;;;37.25;34.71;97600.27;110142;1241;59777;-69
2023/08/17 09:48:33;;;;;;;4.30;3.90;;;;;;;37.27;34.15;97595.31;110128;1244;59692;-67
2023/08/17 09:51:02;;;;;;;4.40;4.00;;;;;;;37.44;34.13;97592.73;110138;1241;71384;-68
2023/08/17 09:53:36;;;;;;;4.50;4.10;;;;;;;37.82;34.32;97592.48;110135;1244;69843;-67
2023/08/17 09:56:10;;;;;;;4.60;4.20;;;;;;;38.09;32.66;97588.44;110109;1241;69298;-68
2023/08/17 09:58:42;;;;;;;4.20;3.80;;;;;;;38.56;33.64;97587.98;110096;1243;59817;-69
2023/08/17 10:01:13;;;;;;;4.10;3.60;;;;;;;38.81;32.58;97582.39;110096;1243;59650;-68
2023/08/17 10:03:45;;;;;;;4.80;4.10;;;;;;;39.50;33.48;97582.06;110125;1241;72074;-67
2023/08/17 10:06:20;;;;;;;5.90;4.50;;;;;;;39.80;31.87;97586.52;110125;1241;69108;-68
2023/08/17 10:08:58;;;;;;;4.60;3.50;;;;;;;39.24;30.53;97581.77;110054;1241;69660;-67
2023/08/17 10:11:32;;;;;;;4.90;4.10;;;;;;;39.22;31.08;97584.33;110113;1241;59689;-67
2023/08/17 10:14:06;;;;;;;4.30;3.90;;;;;;;39.21;31.02;97575.67;110139;1243;60055;-68
2023/08/17 10:16:45;;;;;;;4.60;4.20;;;;;;;39.26;30.14;97571.05;110092;1243;71341;-69
2023/08/17 10:19:40;;;;;;;4.10;3.70;;;;;;;39.15;30.49;97572.15;110099;1244;68498;-68
2023/08/17 10:22:17;;;;;;;5.50;4.30;;;;;;;39.08;30.92;97570.57;110064;1244;69278;-68
2023/08/17 10:24:47;;;;;;;;;;;;;;;38.48;31.24;97572.39;110157;1245;59691;-68
2023/08/17 10:27:16;;;;;;;4.00;3.70;;;;;;;38.17;30.80;97573.39;110147;1241;59776;-67
2023/08/17 10:29:46;;;;;;;4.60;3.70;;;;;;;38.07;31.95;97571.46;110115;1243;70720;-68
2023/08/17 10:32:16;;;;;;;4.80;4.40;;;;;;;38.25;31.84;97569.04;110134;1244;69835;-67
2023/08/17 10:34:45;;;;;;;4.80;4.40;;;;;;;38.69;31.76;97569.27;110098;1244;69092;-68
2023/08/17 10:37:15;;;;;;;4.10;3.70;;;;;;;38.94;30.88;97565.54;110087;1244;59747;-67
2023/08/17 10:39:48;;;;;;;4.90;4.10;;;;;;;38.71;31.01;97562.16;110093;1243;59689;-70
2023/08/17 10:42:35;;;;;;;3.90;3.50;;;;;;;38.82;30.89;97553.20;110129;1247;71962;-69
2023/08/17 10:45:28;;;;;;;4.30;3.90;;;;;;;39.37;30.99;97553.10;110116;1243;68454;-68
2023/08/17 10:48:20;;;;;;;5.20;4.80;;;;;;;39.61;30.07;97555.00;110149;1245;68656;-67
2023/08/17 10:51:02;;;;;;;5.20;4.70;;;;;;;39.44;29.57;97551.91;110079;1241;60103;-67
2023/08/17 10:53:38;;;;;;;4.10;3.80;;;;;;;39.28;29.13;97546.11;110133;1243;59675;-66
2023/08/17 10:56:11;;;;;;;5.30;4.80;;;;;;;39.26;29.39;97543.29;110157;1243;71415;-68
2023/08/17 10:58:44;;;;;;;5.20;4.80;;;;;;;39.08;29.39;97544.16;110126;1241;69232;-69
2023/08/17 11:01:16;;;;;;;4.10;3.70;;;;;;;39.26;29.16;97537.79;110091;1243;69233;-68
2023/08/17 11:04:11;;;;;;;4.30;3.90;;;;;;;39.40;29.71;97541.02;110084;1246;59694;-68
2023/08/17 11:06:39;;;;;;;4.70;4.20;;;;;;;39.74;28.99;97544.27;110125;1241;59689;-68
2023/08/17 11:09:09;;;;;;;4.20;3.80;;;;;;;39.78;28.56;97540.42;110126;1241;71717;-68
2023/08/17 11:11:38;;;;;;;3.90;3.60;;;;;;;39.14;29.32;97538.02;110125;1243;69849;-68
2023/08/17 11:14:08;;;;;;;5.50;5.00;;;;;;;38.98;29.44;97543.69;110100;1244;70506;-68
2023/08/17 11:16:38;;;;;;;4.80;4.30;;;;;;;38.23;29.20;97540.62;110088;1243;59678;-69
2023/08/17 11:19:07;;;;;;;4.60;4.20;;;;;;;38.30;30.03;97545.36;110095;1241;59715;-69
2023/08/17 11:21:41;;;;;;;4.90;4.50;;;;;;;38.59;29.74;97540.05;110078;1241;71942;-69
2023/08/17 11:24:10;;;;;;;6.00;4.20;;;;;;;38.74;29.31;97539.91;110158;1244;69913;-68
2023/08/17 11:26:40;;;;;;;4.60;4.20;;;;;;;38.72;29.64;97535.55;110095;1241;69255;-68
2023/08/17 11:29:09;;;;;;;5.10;4.30;;;;;;;39.02;29.46;97532.04;110131;1244;59719;-68
2023/08/17 11:31:40;;;;;;;4.00;3.70;;;;;;;39.15;29.34;97528.45;110121;1244;59647;-66
2023/08/17 11:34:15;;;;;;;4.00;3.70;;;;;;;39.01;27.62;97523.14;110121;1245;71482;-69
2023/08/17 11:36:44;;;;;;;4.10;3.80;;;;;;;39.54;28.40;97526.40;110073;1244;68759;-70
2023/08/17 11:39:13;;;;;;;4.40;4.00;;;;;;;40.01;27.98;97523.87;110072;1241;69091;-68
2023/08/17 11:41:43;;;;;;;5.00;4.30;;;;;;;40.05;27.72;97526.20;110085;1243;59695;-68
2023/08/17 11:44:12;;;;;;;4.20;3.80;;;;;;;39.65;28.08;97526.79;110101;1245;59684;-67